Time;durP1;ratioP1;P1;durP2;ratioP2;P2;SDS_P1;SDS_P2;PMS_P1;PMS_P2;Temp;Humidity;BMP_temperature;BMP_pressure;BME280_temperature;BME280_humidity;BME280_pressure;Samples;Min_cycle;Max_cycle;Signal;HPM_P1;HPM_P2
2022/02/10 00:04:44;;;;;;;0.10;0.10;;;7.40;99.90;;;;;;5057019;28;20053;-93
2022/02/10 00:17:59;;;;;;;0.10;0.10;;;7.30;99.90;;;;;;5056920;28;20452;-93
2022/02/10 00:20:34;;;;;;;0.10;0.10;;;7.30;99.90;;;;;;5074091;28;20037;-94
2022/02/10 00:36:45;;;;;;;0.00;0.00;;;7.20;99.90;;;;;;5054235;28;20048;-86
2022/02/10 00:41:51;;;;;;;0.10;0.10;;;7.10;99.90;;;;;;5074769;28;20090;-87
2022/02/10 00:44:17;;;;;;;0.00;0.00;;;7.20;99.90;;;;;;5072122;28;20037;-86
2022/02/10 00:46:44;;;;;;;0.10;0.10;;;7.20;99.90;;;;;;5073336;28;20128;-93
2022/02/10 00:49:11;;;;;;;0.00;0.00;;;7.20;99.90;;;;;;5055811;28;20037;-92
2022/02/10 00:51:38;;;;;;;0.10;0.10;;;7.20;99.90;;;;;;5073111;28;20033;-93
2022/02/10 00:54:04;;;;;;;0.10;0.10;;;7.20;99.90;;;;;;5056867;28;20124;-85
2022/02/10 00:56:31;;;;;;;0.00;0.00;;;7.20;99.90;;;;;;5073221;28;20037;-93
2022/02/10 00:59:21;;;;;;;0.03;0.03;;;7.20;99.90;;;;;;5073929;28;20029;-92
2022/02/10 01:31:53;;;;;;;0.10;0.10;;;7.10;99.90;;;;;;5074952;28;20049;-93
2022/02/10 01:34:20;;;;;;;0.10;0.10;;;7.10;99.90;;;;;;5072767;28;20044;-93
2022/02/10 01:36:47;;;;;;;0.10;0.10;;;7.10;99.90;;;;;;5072598;28;20037;-86
2022/02/10 01:39:19;;;;;;;0.10;0.10;;;7.10;99.90;;;;;;5055640;28;20079;-93
2022/02/10 02:03:51;;;;;;;0.10;0.10;;;7.10;99.90;;;;;;5089273;28;20490;-93
2022/02/10 02:06:23;;;;;;;0.10;0.10;;;7.10;99.90;;;;;;5072123;28;20044;-93
2022/02/10 02:08:51;;;;;;;0.00;0.00;;;7.10;99.90;;;;;;5072602;28;20396;-93
2022/02/10 02:11:17;;;;;;;0.10;0.10;;;7.10;99.90;;;;;;5072146;28;20044;-86
2022/02/10 02:13:44;;;;;;;0.10;0.10;;;7.10;99.90;;;;;;5071698;28;20504;-86
2022/02/10 02:16:11;;;;;;;0.08;0.08;;;7.10;99.90;;;;;;5071853;28;20099;-86
2022/02/10 02:18:37;;;;;;;0.10;0.10;;;7.10;99.90;;;;;;5054404;28;20049;-86
2022/02/10 02:21:04;;;;;;;0.10;0.10;;;7.10;99.90;;;;;;5071753;28;20513;-86
2022/02/10 02:23:31;;;;;;;0.10;0.10;;;7.10;99.90;;;;;;5070682;28;20048;-86
2022/02/10 02:26:11;;;;;;;0.10;0.10;;;7.10;99.90;;;;;;5071645;28;20514;-92
2022/02/10 02:28:40;;;;;;;0.10;0.10;;;7.00;99.90;;;;;;5072673;28;20138;-86
2022/02/10 02:31:12;;;;;;;0.10;0.10;;;7.00;99.90;;;;;;5071233;28;20444;-92
2022/02/10 02:34:03;;;;;;;0.00;0.00;;;7.00;99.90;;;;;;5072257;28;20179;-86
2022/02/10 03:06:33;;;;;;;0.10;0.10;;;6.80;99.90;;;;;;5071679;28;20041;-93
2022/02/10 03:09:06;;;;;;;0.10;0.10;;;6.80;99.90;;;;;;5072714;28;20095;-93
2022/02/10 03:11:35;;;;;;;0.20;0.20;;;6.80;99.90;;;;;;5071805;28;20039;-92
2022/02/10 03:14:05;;;;;;;0.00;0.00;;;6.80;99.90;;;;;;5070809;28;20490;-85
2022/02/10 04:15:31;;;;;;;0.08;0.08;;;6.50;99.90;;;;;;5051386;28;20132;-93
2022/02/10 04:26:59;;;;;;;0.00;0.00;;;6.60;99.90;;;;;;5055875;28;20207;-86
2022/02/10 04:53:51;;;;;;;0.10;0.10;;;6.40;99.90;;;;;;5055501;28;20046;-93
2022/02/10 05:22:31;;;;;;;0.10;0.10;;;6.40;99.90;;;;;;5054712;28;20046;-92
2022/02/10 05:33:22;;;;;;;0.10;0.10;;;6.40;99.90;;;;;;5069781;28;20128;-93
2022/02/10 05:35:53;;;;;;;0.10;0.10;;;6.40;99.90;;;;;;5070173;28;20049;-92
2022/02/10 05:38:27;;;;;;;0.10;0.10;;;6.50;99.90;;;;;;5070306;28;20132;-86
2022/02/10 05:43:56;;;;;;;0.10;0.10;;;6.30;99.90;;;;;;5053705;28;20115;-86
2022/02/10 05:49:22;;;;;;;0.10;0.10;;;6.40;99.90;;;;;;5052087;28;20045;-86
2022/02/10 05:52:27;;;;;;;0.10;0.10;;;6.30;99.90;;;;;;5088880;28;20045;-88
2022/02/10 06:49:25;;;;;;;0.10;0.10;;;6.20;99.90;;;;;;5051726;28;20053;-85
2022/02/10 06:52:20;;;;;;;0.10;0.10;;;6.20;99.90;;;;;;5054234;28;20041;-91
2022/02/10 07:55:33;;;;;;;0.10;0.10;;;6.20;99.90;;;;;;5032317;28;20184;-86
2022/02/10 08:00:18;;;;;;;0.10;0.10;;;6.10;99.90;;;;;;5057859;28;20115;-95
2022/02/10 08:29:15;;;;;;;0.10;0.10;;;6.30;99.90;;;;;;5061940;28;20131;-93
2022/02/10 08:49:57;;;;;;;0.10;0.10;;;6.30;99.90;;;;;;5056774;28;20085;-95
2022/02/10 10:00:31;;;;;;;0.10;0.10;;;6.60;99.90;;;;;;5053909;28;20045;-92
2022/02/10 10:03:33;;;;;;;0.10;0.10;;;6.60;99.90;;;;;;5052563;28;20122;-91
2022/02/10 10:06:16;;;;;;;0.00;0.00;;;6.60;99.90;;;;;;5062115;28;20045;-96
2022/02/10 10:53:49;;;;;;;0.03;0.03;;;7.10;99.90;;;;;;5052041;28;20045;-93
2022/02/10 10:56:24;;;;;;;0.10;0.10;;;7.10;99.90;;;;;;5016504;28;20041;-87
2022/02/10 11:22:35;;;;;;;0.00;0.00;;;7.10;99.90;;;;;;5047182;28;20041;-87
2022/02/10 11:41:11;;;;;;;0.08;0.08;;;7.70;99.90;;;;;;5047639;28;20116;-88
2022/02/10 14:09:24;;;;;;;0.10;0.10;;;7.20;99.90;;;;;;5065224;28;20033;-87
2022/02/10 14:20:32;;;;;;;0.08;0.08;;;7.10;99.90;;;;;;5069803;28;20049;-93
2022/02/10 14:23:16;;;;;;;0.00;0.00;;;7.10;99.90;;;;;;5058711;28;20121;-94
2022/02/10 14:26:26;;;;;;;0.00;0.00;;;7.10;99.90;;;;;;5072132;28;20138;-91
2022/02/10 14:28:52;;;;;;;0.03;0.03;;;7.10;99.90;;;;;;5064340;28;20072;-87
2022/02/10 14:31:20;;;;;;;0.10;0.10;;;7.10;99.90;;;;;;5067706;28;20068;-89
2022/02/10 14:33:49;;;;;;;0.03;0.03;;;7.00;99.90;;;;;;5035380;28;20076;-92
2022/02/10 14:36:23;;;;;;;0.10;0.10;;;7.00;99.90;;;;;;5051943;28;20048;-85
2022/02/10 15:17:26;;;;;;;0.13;0.13;;;6.70;99.90;;;;;;5071902;28;20098;-86
2022/02/10 15:46:04;;;;;;;0.10;0.10;;;6.50;99.90;;;;;;5015304;28;20685;-89
2022/02/10 15:56:23;;;;;;;0.10;0.10;;;6.20;99.90;;;;;;5052479;28;20049;-86
2022/02/10 16:17:44;;;;;;;0.10;0.10;;;6.00;99.90;;;;;;5053265;28;20056;-92
2022/02/10 16:20:17;;;;;;;0.10;0.10;;;5.90;99.90;;;;;;5067329;28;20410;-91
2022/02/10 16:25:36;;;;;;;0.10;0.10;;;5.90;99.90;;;;;;5077250;28;20593;-91
2022/02/10 16:28:23;;;;;;;0.00;0.00;;;5.80;99.90;;;;;;5057139;28;20506;-84
2022/02/10 16:30:50;;;;;;;0.10;0.10;;;5.80;99.90;;;;;;5049529;28;20045;-85
2022/02/10 16:33:17;;;;;;;0.10;0.10;;;5.70;99.90;;;;;;5034601;28;20414;-84
2022/02/10 16:35:44;;;;;;;0.08;0.08;;;5.70;99.90;;;;;;5051181;28;20069;-85
2022/02/10 16:38:11;;;;;;;0.20;0.20;;;6.30;99.90;;;;;;5052953;28;20402;-91
2022/02/10 16:40:40;;;;;;;0.10;0.10;;;5.60;99.90;;;;;;5053049;28;20116;-86
2022/02/10 16:43:07;;;;;;;0.10;0.10;;;5.60;99.90;;;;;;5052694;28;20140;-92
2022/02/10 16:45:34;;;;;;;0.00;0.00;;;5.60;99.90;;;;;;5065336;28;20047;-84
2022/02/10 16:48:02;;;;;;;0.10;0.10;;;5.60;99.90;;;;;;5052088;28;20060;-85
2022/02/10 16:50:29;;;;;;;0.10;0.10;;;5.50;99.90;;;;;;5052857;28;20044;-92
2022/02/10 16:53:00;;;;;;;0.10;0.10;;;5.50;99.90;;;;;;5068877;28;20037;-86
2022/02/10 17:01:25;;;;;;;0.10;0.10;;;6.10;99.90;;;;;;5068466;28;20115;-84
2022/02/10 17:15:54;;;;;;;0.10;0.10;;;5.30;99.90;;;;;;5068927;28;20128;-84
2022/02/10 17:26:47;;;;;;;0.10;0.10;;;5.40;99.90;;;;;;5051329;28;20112;-84
2022/02/10 17:29:28;;;;;;;0.10;0.10;;;5.10;99.90;;;;;;5066949;28;20037;-85
2022/02/10 17:53:03;;;;;;;0.10;0.10;;;5.10;99.90;;;;;;5054271;28;20494;-85
2022/02/10 17:55:30;;;;;;;0.10;0.10;;;4.90;99.90;;;;;;5036145;28;20049;-84
2022/02/10 17:57:58;;;;;;;0.10;0.10;;;4.90;99.90;;;;;;5050963;28;20580;-84
2022/02/10 18:00:26;;;;;;;0.10;0.10;;;4.90;99.90;;;;;;5034398;28;20045;-85
2022/02/10 18:02:59;;;;;;;0.10;0.10;;;4.90;99.90;;;;;;5050928;28;20061;-91
2022/02/10 18:08:15;;;;;;;0.10;0.10;;;4.90;99.90;;;;;;5052982;28;20131;-85
2022/02/10 18:16:16;;;;;;;0.10;0.10;;;4.80;99.90;;;;;;5067491;28;20138;-90
2022/02/10 18:18:51;;;;;;;0.10;0.10;;;4.90;99.90;;;;;;5036234;28;20041;-91
2022/02/10 19:01:45;;;;;;;0.10;0.10;;;4.70;99.90;;;;;;5065858;28;20049;-85
2022/02/10 19:03:16;;;;;;;0.10;0.10;;;4.60;99.90;;;;;;5084157;28;20053;-86
2022/02/10 19:10:27;;;;;;;0.10;0.10;;;4.60;99.90;;;;;;5049449;28;20049;-85
2022/02/10 19:12:59;;;;;;;0.10;0.10;;;4.50;99.90;;;;;;5051321;28;20037;-86
2022/02/10 19:15:34;;;;;;;0.10;0.10;;;4.50;99.90;;;;;;5035951;28;20104;-84
2022/02/10 19:18:04;;;;;;;0.10;0.10;;;4.50;99.90;;;;;;5070518;28;20037;-86
2022/02/10 19:20:33;;;;;;;0.10;0.10;;;4.50;99.90;;;;;;5051566;28;20071;-84
2022/02/10 19:23:03;;;;;;;0.10;0.10;;;5.20;99.90;;;;;;5059677;28;20127;-86
2022/02/10 19:25:36;;;;;;;0.10;0.10;;;4.50;99.90;;;;;;5061952;28;20495;-84
2022/02/10 19:28:04;;;;;;;0.10;0.10;;;4.50;99.90;;;;;;5029559;28;20044;-84
2022/02/10 19:30:33;;;;;;;0.20;0.20;;;4.50;99.90;;;;;;5044937;28;20041;-85
2022/02/10 19:33:02;;;;;;;0.10;0.10;;;4.50;99.90;;;;;;5056700;28;20037;-84
2022/02/10 19:35:30;;;;;;;0.10;0.10;;;4.40;99.90;;;;;;5053967;28;20141;-86
2022/02/10 19:38:01;;;;;;;0.13;0.13;;;4.50;99.90;;;;;;5048781;28;20066;-86
2022/02/10 19:40:30;;;;;;;0.10;0.10;;;4.40;99.90;;;;;;5064483;28;20152;-84
2022/02/10 19:42:57;;;;;;;0.20;0.20;;;4.70;99.90;;;;;;5048908;28;20067;-86
2022/02/10 19:45:27;;;;;;;0.10;0.10;;;4.60;99.90;;;;;;5031440;28;20045;-85
2022/02/10 19:47:54;;;;;;;0.10;0.10;;;4.40;99.90;;;;;;5048955;28;20088;-86
2022/02/10 19:50:26;;;;;;;0.10;0.10;;;4.30;99.90;;;;;;5055677;28;20077;-85
2022/02/10 19:52:57;;;;;;;0.10;0.10;;;4.30;99.90;;;;;;5065916;28;20041;-87
2022/02/10 19:55:25;;;;;;;0.10;0.10;;;4.30;99.90;;;;;;5051019;28;20509;-85
2022/02/10 19:57:56;;;;;;;0.10;0.10;;;5.00;99.90;;;;;;5037295;28;20049;-87
2022/02/10 20:00:29;;;;;;;0.10;0.10;;;4.40;99.90;;;;;;5036471;28;20049;-86
2022/02/10 20:02:56;;;;;;;0.10;0.10;;;4.20;99.90;;;;;;5052571;28;20687;-86
2022/02/10 20:05:25;;;;;;;0.10;0.10;;;4.40;99.90;;;;;;5036252;28;20084;-84
2022/02/10 20:07:55;;;;;;;0.10;0.10;;;4.30;99.90;;;;;;5052423;28;20042;-85
2022/02/10 20:10:23;;;;;;;0.20;0.20;;;4.20;99.90;;;;;;5052308;28;20418;-86
2022/02/10 20:12:50;;;;;;;0.10;0.10;;;4.20;99.90;;;;;;5052672;28;20079;-87
2022/02/10 20:15:21;;;;;;;0.00;0.00;;;4.50;99.90;;;;;;5051877;28;20080;-86
2022/02/10 20:17:51;;;;;;;0.00;0.00;;;4.20;99.90;;;;;;5037103;28;20721;-85
2022/02/10 20:20:17;;;;;;;0.10;0.10;;;4.20;99.90;;;;;;5052241;28;20057;-85
2022/02/10 20:22:44;;;;;;;0.10;0.10;;;4.20;99.90;;;;;;5036779;28;20042;-86
2022/02/10 20:25:11;;;;;;;0.10;0.10;;;4.20;99.90;;;;;;5052298;28;20625;-85
2022/02/10 20:27:38;;;;;;;0.10;0.10;;;4.40;99.90;;;;;;5036333;28;20498;-86
2022/02/10 20:30:07;;;;;;;0.10;0.10;;;4.20;99.90;;;;;;5052164;28;20044;-84
2022/02/10 20:32:33;;;;;;;0.10;0.10;;;4.00;99.90;;;;;;5052000;28;20043;-84
2022/02/10 20:35:02;;;;;;;0.10;0.10;;;4.10;99.90;;;;;;5035611;28;20053;-84
2022/02/10 20:37:29;;;;;;;0.10;0.10;;;4.10;99.90;;;;;;5054256;28;20045;-85
2022/02/10 20:39:56;;;;;;;0.10;0.10;;;4.10;99.90;;;;;;5068653;28;20044;-85
2022/02/10 20:42:23;;;;;;;0.10;0.10;;;4.60;99.90;;;;;;5068679;28;20041;-85
2022/02/10 20:44:54;;;;;;;0.10;0.10;;;4.10;99.90;;;;;;5040983;28;20050;-85
2022/02/10 20:47:24;;;;;;;0.13;0.13;;;4.60;99.90;;;;;;5035916;28;20159;-85
2022/02/10 20:49:51;;;;;;;0.10;0.10;;;4.80;99.90;;;;;;5055691;28;20548;-84
2022/02/10 20:52:18;;;;;;;0.10;0.10;;;4.10;99.90;;;;;;5068150;28;20041;-84
2022/02/10 20:54:46;;;;;;;0.10;0.10;;;4.20;99.90;;;;;;5069447;28;20047;-85
2022/02/10 20:57:14;;;;;;;0.10;0.10;;;4.00;99.90;;;;;;5054637;28;20561;-85
2022/02/10 20:59:45;;;;;;;0.10;0.10;;;4.20;99.90;;;;;;5031867;28;20033;-84
2022/02/10 21:02:18;;;;;;;0.10;0.10;;;4.10;99.90;;;;;;5057944;28;20512;-83
2022/02/10 21:05:04;;;;;;;0.10;0.10;;;4.00;99.90;;;;;;5053068;28;20591;-84
2022/02/10 21:07:42;;;;;;;0.10;0.10;;;4.00;99.90;;;;;;5047616;28;20120;-84
2022/02/10 21:10:15;;;;;;;0.10;0.10;;;4.00;99.90;;;;;;5052358;28;20044;-84
2022/02/10 21:12:44;;;;;;;0.10;0.10;;;4.00;99.90;;;;;;5069441;28;20124;-85
2022/02/10 21:15:17;;;;;;;0.10;0.10;;;4.00;99.90;;;;;;5031504;28;20111;-84
2022/02/10 21:17:45;;;;;;;0.25;0.25;;;4.00;99.90;;;;;;5038929;28;20083;-85
2022/02/10 21:20:13;;;;;;;0.10;0.10;;;4.10;99.90;;;;;;5051503;28;20120;-85
2022/02/10 21:22:45;;;;;;;0.10;0.10;;;4.10;99.90;;;;;;5035226;28;20433;-84
2022/02/10 21:25:22;;;;;;;0.10;0.10;;;4.10;99.90;;;;;;5035560;28;20462;-84
2022/02/10 21:27:52;;;;;;;0.10;0.10;;;4.20;99.90;;;;;;5051575;28;20045;-84
2022/02/10 21:30:21;;;;;;;0.10;0.10;;;4.00;99.90;;;;;;5050405;28;20501;-84
2022/02/10 21:32:55;;;;;;;0.10;0.10;;;4.30;99.90;;;;;;5048688;28;20043;-85
2022/02/10 21:38:01;;;;;;;0.10;0.10;;;4.00;99.90;;;;;;5067138;28;20460;-86
2022/02/10 21:57:09;;;;;;;0.10;0.10;;;3.80;99.90;;;;;;5071949;28;20791;-84
2022/02/10 22:08:49;;;;;;;0.10;0.10;;;3.60;99.90;;;;;;4991309;28;20505;-84
2022/02/10 22:18:52;;;;;;;0.15;0.15;;;3.40;99.90;;;;;;5056003;28;20182;-85
2022/02/10 22:21:26;;;;;;;0.10;0.10;;;3.40;99.90;;;;;;5054289;28;20069;-84
2022/02/10 22:23:53;;;;;;;0.13;0.13;;;3.40;99.90;;;;;;5054630;28;20056;-85
2022/02/10 22:26:24;;;;;;;0.10;0.10;;;3.30;99.90;;;;;;5053676;28;20482;-84
2022/02/10 22:29:05;;;;;;;0.10;0.10;;;3.30;99.90;;;;;;5035160;28;20526;-85
2022/02/10 22:36:37;;;;;;;0.17;0.17;;;3.20;99.90;;;;;;5066859;28;20080;-86
2022/02/10 22:39:04;;;;;;;0.10;0.10;;;3.30;99.90;;;;;;5050698;28;20044;-86
2022/02/10 22:41:32;;;;;;;0.10;0.10;;;3.20;99.90;;;;;;5030721;28;20041;-85
2022/02/10 22:44:01;;;;;;;0.10;0.10;;;3.70;99.90;;;;;;5046180;28;20041;-86
2022/02/10 22:46:27;;;;;;;0.20;0.20;;;3.20;99.90;;;;;;5033605;28;20048;-86
2022/02/10 22:48:54;;;;;;;0.10;0.10;;;3.30;99.90;;;;;;5033694;28;20033;-85
2022/02/10 22:51:24;;;;;;;0.20;0.20;;;3.20;99.90;;;;;;5058446;28;20072;-85
2022/02/10 22:53:51;;;;;;;0.10;0.10;;;3.20;99.90;;;;;;5079413;28;20494;-85
2022/02/10 22:56:21;;;;;;;0.20;0.20;;;3.20;99.90;;;;;;5069578;28;20044;-86
2022/02/10 22:58:50;;;;;;;0.17;0.17;;;3.20;99.90;;;;;;5069053;28;20083;-85
2022/02/10 23:01:16;;;;;;;0.10;0.10;;;3.20;99.90;;;;;;5069631;28;20040;-84
2022/02/10 23:03:43;;;;;;;0.17;0.17;;;3.60;99.90;;;;;;5069047;28;20064;-84
2022/02/10 23:06:12;;;;;;;0.10;0.10;;;3.00;99.90;;;;;;5069756;28;20045;-85
2022/02/10 23:08:39;;;;;;;0.20;0.20;;;3.00;99.90;;;;;;5069600;28;20517;-85
2022/02/10 23:11:05;;;;;;;0.15;0.15;;;3.00;99.90;;;;;;5069961;28;20083;-84
2022/02/10 23:13:34;;;;;;;0.10;0.10;;;3.00;99.90;;;;;;5053156;28;20497;-85
2022/02/10 23:16:06;;;;;;;0.10;0.10;;;3.00;99.90;;;;;;5069743;28;20128;-85
2022/02/10 23:18:35;;;;;;;0.10;0.10;;;2.90;99.90;;;;;;5085889;28;20551;-85
2022/02/10 23:21:05;;;;;;;0.10;0.10;;;3.10;99.90;;;;;;5069541;28;20099;-85
2022/02/10 23:23:36;;;;;;;0.20;0.20;;;2.90;99.90;;;;;;5068992;28;20409;-85
2022/02/10 23:26:05;;;;;;;0.10;0.10;;;3.00;99.90;;;;;;5053434;28;20041;-84
2022/02/10 23:28:39;;;;;;;0.20;0.20;;;3.00;99.90;;;;;;5069169;28;20494;-85
2022/02/10 23:31:07;;;;;;;0.20;0.20;;;3.00;99.90;;;;;;5069210;28;20379;-85
2022/02/10 23:33:37;;;;;;;0.20;0.20;;;3.10;99.90;;;;;;5069153;28;20132;-85
2022/02/10 23:38:42;;;;;;;0.20;0.20;;;3.10;99.90;;;;;;5085807;28;20045;-84
2022/02/10 23:43:55;;;;;;;0.20;0.20;;;3.20;99.90;;;;;;5072037;28;20053;-84
2022/02/10 23:46:22;;;;;;;0.20;0.20;;;3.30;99.90;;;;;;5052833;28;20047;-85
2022/02/10 23:48:52;;;;;;;0.10;0.10;;;3.20;99.90;;;;;;5069244;28;20044;-84
2022/02/10 23:51:21;;;;;;;0.10;0.10;;;3.20;99.90;;;;;;5069767;28;20037;-85
2022/02/10 23:53:48;;;;;;;0.10;0.10;;;3.20;99.90;;;;;;5069307;28;20044;-83
2022/02/10 23:56:17;;;;;;;0.20;0.20;;;3.30;99.90;;;;;;5069065;28;20045;-84
